createdAt,value
2022-07-26T00:01:23.510Z,11.65
2022-07-26T00:03:55.971Z,11.35
2022-07-26T00:06:26.849Z,13.00
2022-07-26T00:08:54.647Z,14.65
2022-07-26T00:11:22.305Z,10.27
2022-07-26T00:16:22.617Z,22.60
2022-07-26T00:18:49.487Z,8.57
2022-07-26T00:21:16.277Z,16.57
2022-07-26T00:23:42.881Z,16.00
2022-07-26T00:26:09.843Z,11.55
2022-07-26T00:28:39.287Z,16.23
2022-07-26T00:31:07.030Z,14.30
2022-07-26T00:33:35.343Z,17.40
2022-07-26T00:36:02.584Z,15.25
2022-07-26T00:38:29.228Z,7.50
2022-07-26T00:40:56.920Z,15.88
2022-07-26T00:45:57.415Z,13.32
2022-07-26T00:48:24.343Z,12.55
2022-07-26T00:50:56.235Z,21.70
2022-07-26T00:53:23.838Z,18.23
2022-07-26T00:55:51.583Z,15.25
2022-07-26T01:00:56.905Z,13.55
2022-07-26T01:03:29.154Z,17.55
2022-07-26T01:06:03.154Z,12.35
2022-07-26T01:08:29.957Z,9.32
2022-07-26T01:10:57.282Z,11.57
2022-07-26T01:13:24.290Z,14.15
2022-07-26T01:15:51.115Z,14.38
2022-07-26T01:18:18.060Z,12.97
2022-07-26T01:20:50.712Z,19.93
2022-07-26T01:23:19.129Z,10.93
2022-07-26T01:25:46.276Z,13.07
2022-07-26T01:28:19.872Z,14.73
2022-07-26T01:30:52.893Z,9.65
2022-07-26T01:33:21.263Z,9.85
2022-07-26T01:35:47.960Z,10.40
2022-07-26T01:38:27.669Z,12.57
2022-07-26T01:40:54.590Z,19.85
2022-07-26T01:43:23.828Z,8.67
2022-07-26T01:45:50.959Z,16.90
2022-07-26T01:48:17.965Z,11.32
2022-07-26T01:50:47.072Z,18.48
2022-07-26T01:53:20.133Z,11.00
2022-07-26T01:55:52.311Z,14.98
2022-07-26T01:58:25.107Z,19.75
2022-07-26T02:00:53.007Z,11.75
2022-07-26T02:03:22.893Z,19.70
2022-07-26T02:05:52.561Z,9.93
2022-07-26T02:08:19.537Z,8.55
2022-07-26T02:11:03.437Z,14.20
2022-07-26T02:13:42.105Z,11.27
2022-07-26T02:16:13.659Z,13.63
2022-07-26T02:18:43.059Z,12.27
2022-07-26T02:21:10.687Z,11.05
2022-07-26T02:23:41.228Z,16.08
2022-07-26T02:26:09.331Z,9.05
2022-07-26T02:28:35.976Z,12.65
2022-07-26T02:31:02.785Z,11.50
2022-07-26T02:33:30.882Z,14.53
2022-07-26T02:36:00.364Z,8.45
2022-07-26T02:38:29.224Z,8.23
2022-07-26T02:40:55.871Z,9.73
2022-07-26T02:43:22.570Z,11.43
2022-07-26T02:46:01.037Z,7.90
2022-07-26T02:48:31.642Z,10.65
2022-07-26T02:50:58.354Z,12.68
2022-07-26T02:53:27.138Z,11.93
2022-07-26T02:55:56.722Z,9.00
2022-07-26T02:58:25.308Z,7.97
2022-07-26T03:00:57.333Z,9.38
2022-07-26T03:03:24.667Z,5.05
2022-07-26T03:08:33.586Z,5.75
2022-07-26T03:11:12.303Z,5.07
2022-07-26T03:13:39.296Z,8.55
2022-07-26T03:16:11.484Z,9.50
2022-07-26T03:18:38.323Z,3.83
2022-07-26T03:21:08.622Z,7.53
2022-07-26T03:23:45.800Z,4.72
2022-07-26T03:26:16.939Z,5.03
2022-07-26T03:28:44.711Z,5.82
2022-07-26T03:33:44.800Z,7.85
2022-07-26T03:36:13.484Z,8.23
2022-07-26T03:38:42.347Z,4.70
2022-07-26T03:41:08.923Z,3.85
2022-07-26T03:43:40.519Z,5.70
2022-07-26T03:46:07.802Z,6.10
2022-07-26T03:48:34.574Z,4.30
2022-07-26T03:51:01.544Z,5.55
2022-07-26T03:53:28.233Z,7.37
2022-07-26T03:56:16.690Z,4.72
2022-07-26T03:58:43.993Z,3.80
2022-07-26T04:01:13.271Z,5.72
2022-07-26T04:03:43.300Z,3.53
2022-07-26T04:06:16.541Z,8.30
2022-07-26T04:08:46.971Z,8.30
2022-07-26T04:11:14.272Z,4.63
2022-07-26T04:13:41.180Z,2.47
2022-07-26T04:16:08.229Z,6.17
2022-07-26T04:18:34.938Z,1.50
2022-07-26T04:21:01.906Z,3.28
2022-07-26T04:23:28.542Z,8.70
2022-07-26T04:25:57.546Z,5.95
2022-07-26T04:28:30.162Z,4.53
2022-07-26T04:30:59.729Z,4.70
2022-07-26T04:33:26.702Z,4.90
2022-07-26T04:35:57.771Z,10.20
2022-07-26T04:38:27.215Z,5.00
2022-07-26T04:40:56.438Z,10.02
2022-07-26T04:43:26.581Z,3.60
2022-07-26T04:45:53.216Z,4.78
2022-07-26T04:48:20.008Z,5.47
2022-07-26T04:50:47.166Z,3.63
2022-07-26T04:53:14.230Z,6.43
2022-07-26T04:55:55.185Z,5.25
2022-07-26T04:58:24.860Z,5.20
2022-07-26T05:01:15.206Z,4.78
2022-07-26T05:03:44.443Z,8.43
2022-07-26T05:06:13.642Z,8.38
2022-07-26T05:08:43.317Z,4.65
2022-07-26T05:11:10.899Z,4.95
2022-07-26T05:13:40.273Z,6.57
2022-07-26T05:16:16.556Z,3.13
2022-07-26T05:18:49.393Z,5.07
2022-07-26T05:21:17.518Z,7.47
2022-07-26T05:23:46.197Z,8.85
2022-07-26T05:26:17.848Z,11.40
2022-07-26T05:28:44.657Z,5.47
2022-07-26T05:31:16.863Z,4.13
2022-07-26T05:33:45.735Z,3.78
2022-07-26T05:36:14.601Z,6.25
2022-07-26T05:38:41.463Z,5.32
2022-07-26T05:41:08.089Z,5.27
2022-07-26T05:43:41.586Z,8.50
2022-07-26T05:46:09.951Z,6.22
2022-07-26T05:48:37.249Z,3.70
2022-07-26T05:51:04.394Z,7.13
2022-07-26T05:53:32.009Z,7.60
2022-07-26T05:55:58.974Z,2.63
2022-07-26T05:58:25.721Z,3.40
2022-07-26T06:00:54.754Z,2.92
2022-07-26T06:03:24.213Z,1.05
2022-07-26T06:05:52.835Z,6.05
2022-07-26T06:08:23.335Z,3.42
2022-07-26T06:10:50.709Z,5.80
2022-07-26T06:13:18.017Z,2.65
2022-07-26T06:15:45.601Z,5.70
2022-07-26T06:18:13.567Z,4.38
2022-07-26T06:20:44.719Z,2.35
2022-07-26T06:23:11.322Z,2.67
2022-07-26T06:25:40.664Z,2.28
2022-07-26T06:28:10.237Z,5.90
2022-07-26T06:30:38.718Z,2.85
2022-07-26T06:33:06.131Z,5.32
2022-07-26T06:35:35.281Z,2.22
2022-07-26T06:38:03.000Z,2.75
2022-07-26T06:43:00.091Z,2.97
2022-07-26T06:45:31.139Z,4.90
2022-07-26T06:47:57.876Z,6.40
2022-07-26T06:50:27.494Z,2.20
2022-07-26T06:52:54.147Z,2.80
2022-07-26T06:55:20.946Z,6.85
2022-07-26T06:57:49.957Z,3.33
2022-07-26T07:00:18.222Z,4.53
2022-07-26T07:02:44.965Z,3.78
2022-07-26T07:05:12.346Z,3.83
2022-07-26T07:07:42.793Z,7.07
2022-07-26T07:10:10.360Z,5.47
2022-07-26T07:12:40.421Z,3.85
2022-07-26T07:15:08.159Z,6.95
2022-07-26T07:20:03.694Z,4.60
2022-07-26T07:22:33.615Z,7.70
2022-07-26T07:25:00.857Z,2.38
2022-07-26T07:27:32.929Z,5.15
2022-07-26T07:30:02.744Z,5.63
2022-07-26T07:32:30.918Z,1.67
2022-07-26T07:34:57.650Z,6.45
2022-07-26T07:37:24.330Z,4.72
2022-07-26T07:39:51.188Z,5.85
2022-07-26T07:42:20.283Z,3.38
2022-07-26T07:44:47.570Z,4.53
2022-07-26T07:47:14.659Z,5.95
2022-07-26T07:49:41.722Z,5.13
2022-07-26T07:52:08.589Z,4.65
2022-07-26T07:54:35.165Z,4.30
2022-07-26T07:57:04.246Z,4.20
2022-07-26T07:59:31.429Z,3.80
2022-07-26T08:01:59.261Z,6.78
2022-07-26T08:04:27.711Z,5.50
2022-07-26T08:06:54.469Z,5.50
2022-07-26T08:09:23.730Z,2.63
2022-07-26T08:11:51.293Z,7.28
2022-07-26T08:14:19.434Z,3.95
2022-07-26T08:16:47.078Z,5.78
2022-07-26T08:21:43.248Z,1.85
2022-07-26T08:24:10.986Z,2.20
2022-07-26T08:29:04.329Z,2.33
2022-07-26T08:31:31.431Z,5.50
2022-07-26T08:33:59.035Z,5.88
2022-07-26T08:36:32.354Z,3.80
2022-07-26T08:39:00.609Z,2.38
2022-07-26T08:41:27.570Z,2.58
2022-07-26T08:43:54.236Z,2.13
2022-07-26T08:46:27.542Z,1.77
2022-07-26T08:48:58.337Z,1.67
2022-07-26T08:51:26.800Z,1.83
2022-07-26T08:54:05.702Z,2.05
2022-07-26T08:56:38.493Z,2.38
2022-07-26T08:59:21.170Z,5.22
2022-07-26T09:02:04.508Z,1.05
2022-07-26T09:04:36.431Z,3.33
2022-07-26T09:07:11.892Z,5.40
2022-07-26T09:09:56.580Z,1.33
2022-07-26T09:12:25.144Z,3.10
2022-07-26T09:14:52.944Z,2.80
2022-07-26T09:17:23.464Z,6.13
2022-07-26T09:20:08.030Z,5.97
2022-07-26T09:22:35.343Z,2.13
2022-07-26T09:25:18.769Z,4.30
2022-07-26T09:27:45.347Z,4.00
2022-07-26T09:30:14.531Z,4.68
2022-07-26T09:32:41.155Z,2.25
2022-07-26T09:35:45.319Z,0.75
2022-07-26T09:38:13.220Z,8.30
2022-07-26T09:40:39.908Z,2.75
2022-07-26T09:43:07.308Z,2.83
2022-07-26T09:45:39.812Z,4.00
2022-07-26T09:48:13.842Z,2.50
2022-07-26T09:50:49.252Z,3.67
2022-07-26T09:53:16.155Z,4.65
2022-07-26T09:55:45.851Z,1.92
2022-07-26T09:58:14.457Z,5.10
2022-07-26T10:00:45.895Z,3.30
2022-07-26T10:03:14.530Z,5.10
2022-07-26T10:05:42.270Z,2.72
2022-07-26T10:10:55.864Z,2.60
2022-07-26T10:13:24.090Z,3.00
2022-07-26T10:15:52.266Z,1.83
2022-07-26T10:18:38.286Z,3.00
2022-07-26T10:21:31.767Z,3.75
2022-07-26T10:24:00.361Z,2.30
2022-07-26T10:26:35.217Z,2.58
2022-07-26T10:29:17.364Z,3.05
2022-07-26T10:31:46.020Z,2.35
2022-07-26T10:34:34.327Z,4.35
2022-07-26T10:37:06.307Z,3.47
2022-07-26T10:39:32.969Z,3.10
2022-07-26T10:42:08.716Z,6.03
2022-07-26T10:44:47.271Z,3.40
2022-07-26T10:47:18.912Z,3.58
2022-07-26T10:49:59.046Z,2.35
2022-07-26T10:52:32.547Z,3.83
2022-07-26T10:54:59.593Z,3.83
2022-07-26T10:57:30.993Z,4.43
2022-07-26T10:59:59.167Z,3.33
2022-07-26T11:02:33.206Z,3.80
2022-07-26T11:05:15.671Z,2.25
2022-07-26T11:08:12.269Z,2.95
2022-07-26T11:10:43.169Z,3.47
2022-07-26T11:13:14.276Z,4.07
2022-07-26T11:15:45.389Z,3.97
2022-07-26T11:18:18.496Z,2.35
2022-07-26T11:20:47.260Z,7.30
2022-07-26T11:23:31.896Z,6.07
2022-07-26T11:26:19.156Z,4.72
2022-07-26T11:31:51.138Z,5.70
2022-07-26T11:34:27.997Z,10.40
2022-07-26T11:36:57.190Z,4.95
2022-07-26T11:39:28.221Z,5.68
2022-07-26T11:42:03.629Z,4.68
2022-07-26T11:44:31.074Z,7.05
2022-07-26T11:50:00.016Z,3.53
2022-07-26T11:52:32.550Z,6.22
2022-07-26T11:54:59.451Z,5.75
2022-07-26T11:57:32.694Z,8.77
2022-07-26T12:00:01.157Z,3.45
2022-07-26T12:02:32.462Z,1.92
2022-07-26T12:05:22.798Z,7.18
2022-07-26T12:08:08.742Z,6.22
2022-07-26T12:10:35.788Z,8.60
2022-07-26T12:13:13.886Z,6.68
2022-07-26T12:15:52.077Z,8.38
2022-07-26T12:18:29.267Z,6.45
2022-07-26T12:21:07.770Z,4.30
2022-07-26T12:23:45.869Z,8.13
2022-07-26T12:26:24.460Z,11.85
2022-07-26T12:28:52.780Z,7.32
2022-07-26T12:31:27.312Z,10.95
2022-07-26T12:33:54.110Z,6.47
2022-07-26T12:36:27.379Z,1.10
2022-07-26T12:39:00.338Z,4.85
2022-07-26T12:41:40.594Z,7.95
2022-07-26T12:44:12.501Z,8.85
2022-07-26T12:46:40.944Z,15.30
2022-07-26T12:49:07.730Z,9.10
2022-07-26T12:51:34.766Z,5.80
2022-07-26T12:54:01.641Z,6.15
2022-07-26T12:56:28.585Z,2.67
2022-07-26T12:59:00.959Z,11.13
2022-07-26T13:01:29.522Z,5.47
2022-07-26T13:03:56.843Z,5.30
2022-07-26T13:06:24.168Z,7.95
2022-07-26T13:08:53.885Z,7.35
2022-07-26T13:11:23.627Z,5.28
2022-07-26T13:13:50.684Z,11.57
2022-07-26T13:16:18.474Z,7.05
2022-07-26T13:18:46.256Z,7.85
2022-07-26T13:21:13.119Z,3.58
2022-07-26T13:23:40.822Z,6.70
2022-07-26T13:26:08.394Z,5.45
2022-07-26T13:28:36.468Z,14.57
2022-07-26T13:31:03.667Z,8.52
2022-07-26T13:33:30.532Z,5.15
2022-07-26T13:35:58.715Z,11.90
2022-07-26T13:38:33.827Z,12.27
2022-07-26T13:41:02.245Z,7.18
2022-07-26T13:43:35.618Z,13.40
2022-07-26T13:46:07.311Z,6.60
2022-07-26T13:48:36.624Z,6.72
2022-07-26T13:51:10.106Z,5.22
2022-07-26T13:53:37.030Z,11.45
2022-07-26T13:56:22.240Z,4.03
2022-07-26T13:58:49.091Z,10.68
2022-07-26T14:01:16.418Z,4.95
2022-07-26T14:06:09.646Z,4.53
2022-07-26T14:08:36.948Z,8.27
2022-07-26T14:11:05.689Z,5.57
2022-07-26T14:13:33.337Z,5.20
2022-07-26T14:18:27.653Z,7.38
2022-07-26T14:20:54.344Z,9.48
2022-07-26T14:23:21.261Z,7.82
2022-07-26T14:25:48.280Z,5.55
2022-07-26T14:28:16.376Z,3.65
2022-07-26T14:30:43.424Z,8.70
2022-07-26T14:33:10.009Z,3.53
2022-07-26T14:35:38.772Z,4.93
2022-07-26T14:38:06.598Z,5.30
2022-07-26T14:40:35.980Z,3.97
2022-07-26T14:43:03.657Z,6.57
2022-07-26T14:45:30.632Z,3.88
2022-07-26T14:47:57.720Z,5.75
2022-07-26T14:50:26.183Z,6.18
2022-07-26T14:52:53.567Z,3.53
2022-07-26T14:57:54.330Z,6.50
2022-07-26T15:00:22.639Z,8.95
2022-07-26T15:02:49.991Z,6.57
2022-07-26T15:05:20.867Z,2.38
2022-07-26T15:07:48.188Z,2.92
2022-07-26T15:10:15.831Z,5.95
2022-07-26T15:12:43.632Z,10.52
2022-07-26T15:15:14.677Z,4.03
2022-07-26T15:17:43.576Z,3.47
2022-07-26T15:20:10.598Z,3.78
2022-07-26T15:22:38.472Z,4.18
2022-07-26T15:25:06.849Z,3.83
2022-07-26T15:27:33.813Z,5.30
2022-07-26T15:30:06.991Z,4.55
2022-07-26T15:32:37.171Z,3.63
2022-07-26T15:35:07.855Z,11.15
2022-07-26T15:40:15.261Z,4.05
2022-07-26T15:42:45.735Z,5.03
2022-07-26T15:45:14.823Z,5.28
2022-07-26T15:47:54.801Z,5.43
2022-07-26T15:50:23.373Z,5.95
2022-07-26T15:52:50.711Z,2.33
2022-07-26T15:55:18.865Z,2.83
2022-07-26T15:57:46.964Z,2.95
2022-07-26T16:00:15.118Z,4.03
2022-07-26T16:02:42.262Z,8.55
2022-07-26T16:05:10.695Z,3.22
2022-07-26T16:07:41.368Z,5.53
2022-07-26T16:10:10.277Z,4.32
2022-07-26T16:12:36.850Z,4.93
2022-07-26T16:15:05.882Z,5.45
2022-07-26T16:17:34.642Z,2.63
2022-07-26T16:20:01.715Z,3.63
2022-07-26T16:22:31.719Z,2.30
2022-07-26T16:24:58.563Z,5.25
2022-07-26T16:27:25.152Z,2.65
2022-07-26T16:29:52.607Z,3.10
2022-07-26T16:34:48.382Z,4.18
2022-07-26T16:37:14.989Z,3.20
2022-07-26T16:39:41.555Z,3.92
2022-07-26T16:42:08.544Z,2.72
2022-07-26T16:44:40.014Z,1.75
2022-07-26T16:47:12.105Z,8.00
2022-07-26T16:49:39.061Z,3.55
2022-07-26T16:52:06.662Z,6.07
2022-07-26T16:54:35.623Z,8.32
2022-07-26T16:57:02.475Z,6.18
2022-07-26T16:59:30.749Z,4.37
2022-07-26T17:02:03.158Z,7.43
2022-07-26T17:04:30.022Z,6.25
2022-07-26T17:07:23.519Z,3.15
2022-07-26T17:09:43.960Z,7.78
2022-07-26T17:12:10.936Z,4.38
2022-07-26T17:14:38.129Z,4.32
2022-07-26T17:17:04.812Z,4.70
2022-07-26T17:19:31.511Z,2.25
2022-07-26T17:21:58.411Z,3.42
2022-07-26T17:24:26.774Z,2.77
2022-07-26T17:26:53.932Z,4.05
2022-07-26T17:29:23.251Z,7.17
2022-07-26T17:31:52.491Z,3.15
2022-07-26T17:34:20.948Z,3.75
2022-07-26T17:36:47.456Z,3.78
2022-07-26T17:39:16.496Z,5.40
2022-07-26T17:41:49.292Z,3.22
2022-07-26T17:44:18.614Z,4.22
2022-07-26T17:46:45.612Z,1.90
2022-07-26T17:49:13.145Z,3.80
2022-07-26T17:54:08.603Z,4.70
2022-07-26T17:56:40.035Z,5.82
2022-07-26T17:59:08.742Z,3.58
2022-07-26T18:01:36.164Z,4.78
2022-07-26T18:04:03.631Z,4.13
2022-07-26T18:06:30.565Z,4.25
2022-07-26T18:09:00.103Z,4.63
2022-07-26T18:11:28.162Z,2.97
2022-07-26T18:13:55.922Z,3.60
2022-07-26T18:16:23.083Z,5.35
2022-07-26T18:18:49.776Z,5.63
2022-07-26T18:21:16.415Z,2.60
2022-07-26T18:24:06.772Z,2.08
2022-07-26T18:26:30.205Z,1.50
2022-07-26T18:28:56.770Z,2.10
2022-07-26T18:31:25.881Z,1.80
2022-07-26T18:33:52.713Z,7.07
2022-07-26T18:36:21.925Z,2.90
2022-07-26T18:38:49.224Z,2.80
2022-07-26T18:41:17.243Z,1.85
2022-07-26T18:43:44.424Z,4.82
2022-07-26T18:46:11.190Z,14.43
2022-07-26T18:48:41.688Z,6.00
2022-07-26T18:51:09.321Z,7.78
2022-07-26T18:53:36.275Z,3.30
2022-07-26T18:56:04.451Z,4.80
2022-07-26T18:58:32.787Z,5.05
2022-07-26T19:01:02.500Z,4.45
2022-07-26T19:03:35.134Z,2.80
2022-07-26T19:06:06.562Z,1.35
2022-07-26T19:08:33.272Z,3.78
2022-07-26T19:11:00.404Z,6.30
2022-07-26T19:13:27.159Z,6.20
2022-07-26T19:15:56.488Z,2.88
2022-07-26T19:18:23.257Z,4.35
2022-07-26T19:20:50.220Z,6.70
2022-07-26T19:23:16.735Z,2.10
2022-07-26T19:25:43.542Z,4.38
2022-07-26T19:28:12.423Z,4.10
2022-07-26T19:30:41.664Z,3.05
2022-07-26T19:33:08.545Z,1.52
2022-07-26T19:35:36.783Z,4.50
2022-07-26T19:38:03.846Z,3.30
2022-07-26T19:40:30.955Z,2.17
2022-07-26T19:42:58.827Z,2.25
2022-07-26T19:47:54.431Z,3.85
2022-07-26T19:50:21.177Z,4.75
2022-07-26T19:52:47.875Z,3.92
2022-07-26T19:55:14.838Z,5.68
2022-07-26T19:57:41.404Z,1.27
2022-07-26T20:00:09.581Z,1.58
2022-07-26T20:02:36.585Z,2.90
2022-07-26T20:05:07.026Z,3.22
2022-07-26T20:07:34.070Z,1.42
2022-07-26T20:10:00.635Z,2.53
2022-07-26T20:12:27.503Z,3.47
2022-07-26T20:14:58.883Z,1.52
2022-07-26T20:17:30.919Z,1.27
2022-07-26T20:20:00.731Z,5.28
2022-07-26T20:22:27.530Z,2.63
2022-07-26T20:24:56.236Z,1.75
2022-07-26T20:27:23.941Z,5.30
2022-07-26T20:29:50.871Z,2.47
2022-07-26T20:32:23.077Z,3.17
2022-07-26T20:34:52.858Z,3.40
2022-07-26T20:37:20.512Z,1.08
2022-07-26T20:39:47.171Z,7.95
2022-07-26T20:42:21.465Z,4.57
2022-07-26T20:44:48.898Z,4.80
2022-07-26T20:47:18.611Z,5.00
2022-07-26T20:49:45.225Z,3.90
2022-07-26T20:52:12.712Z,2.88
2022-07-26T20:54:39.259Z,2.55
2022-07-26T20:57:08.305Z,2.30
2022-07-26T20:59:35.522Z,6.50
2022-07-26T21:02:02.249Z,2.28
2022-07-26T21:04:28.988Z,2.00
2022-07-26T21:06:55.521Z,4.90
2022-07-26T21:09:22.410Z,4.57
2022-07-26T21:11:51.314Z,2.90
2022-07-26T21:14:18.627Z,5.10
2022-07-26T21:16:45.269Z,3.03
2022-07-26T21:19:14.872Z,3.47
2022-07-26T21:21:42.181Z,3.30
2022-07-26T21:24:09.786Z,2.53
2022-07-26T21:26:36.795Z,2.95
2022-07-26T21:29:03.809Z,2.17
2022-07-26T21:31:33.133Z,1.17
2022-07-26T21:34:00.207Z,0.70
2022-07-26T21:36:27.415Z,3.17
2022-07-26T21:38:54.088Z,1.80
2022-07-26T21:41:20.927Z,3.88
2022-07-26T21:43:47.897Z,4.85
2022-07-26T21:46:16.908Z,1.08
2022-07-26T21:48:43.856Z,2.10
2022-07-26T21:51:15.359Z,2.33
2022-07-26T21:53:42.085Z,3.13
2022-07-26T21:56:09.144Z,1.45
2022-07-26T21:58:36.801Z,2.03
2022-07-26T22:03:36.612Z,2.47
2022-07-26T22:06:04.712Z,4.88
2022-07-26T22:08:31.927Z,3.17
2022-07-26T22:10:58.850Z,1.42
2022-07-26T22:13:25.504Z,6.60
2022-07-26T22:15:57.047Z,4.40
2022-07-26T22:18:26.388Z,5.82
2022-07-26T22:20:54.363Z,2.35
2022-07-26T22:23:23.121Z,3.92
2022-07-26T22:25:50.049Z,1.58
2022-07-26T22:28:18.239Z,2.70
2022-07-26T22:30:45.749Z,2.25
2022-07-26T22:33:12.669Z,1.07
2022-07-26T22:35:39.667Z,1.63
2022-07-26T22:38:09.379Z,4.20
2022-07-26T22:40:37.589Z,3.53
2022-07-26T22:43:07.962Z,1.95
2022-07-26T22:45:37.849Z,3.50
2022-07-26T22:48:05.490Z,2.40
2022-07-26T22:50:34.512Z,1.50
2022-07-26T22:53:01.407Z,1.85
2022-07-26T22:55:28.854Z,2.13
2022-07-26T22:57:55.988Z,3.38
2022-07-26T23:00:22.606Z,3.10
2022-07-26T23:02:49.312Z,3.33
2022-07-26T23:05:16.020Z,2.60
2022-07-26T23:07:43.588Z,2.03
2022-07-26T23:10:17.362Z,1.92
2022-07-26T23:12:46.883Z,0.70
2022-07-26T23:15:13.818Z,2.20
2022-07-26T23:17:41.826Z,1.75
2022-07-26T23:22:43.300Z,3.42
2022-07-26T23:25:10.587Z,1.80
2022-07-26T23:27:37.744Z,4.65
2022-07-26T23:30:06.385Z,1.73
2022-07-26T23:32:32.959Z,2.53
2022-07-26T23:34:59.538Z,1.50
2022-07-26T23:37:27.068Z,2.35
2022-07-26T23:39:53.831Z,1.37
2022-07-26T23:42:22.595Z,2.63
2022-07-26T23:44:55.036Z,5.55
2022-07-26T23:47:26.354Z,1.48
2022-07-26T23:49:53.257Z,5.43
2022-07-26T23:52:20.332Z,2.25
2022-07-26T23:54:49.590Z,2.30
2022-07-26T23:57:16.241Z,4.68
2022-07-26T23:59:44.786Z,1.80
